createdAt,value
2017-08-24T00:00:17.566Z,101327
2017-08-24T00:02:45.750Z,101317
2017-08-24T00:05:13.941Z,101318
2017-08-24T00:07:42.103Z,101319
2017-08-24T00:10:10.256Z,101308
2017-08-24T00:12:38.826Z,101305
2017-08-24T00:15:07.021Z,101299
2017-08-24T00:17:35.221Z,101297
2017-08-24T00:20:03.415Z,101285
2017-08-24T00:22:31.576Z,101281
2017-08-24T00:24:59.754Z,101281
2017-08-24T00:27:27.955Z,101278
2017-08-24T00:29:56.160Z,101269
2017-08-24T00:32:25.120Z,101268
2017-08-24T00:34:53.385Z,101267
2017-08-24T00:37:21.573Z,101256
2017-08-24T00:39:49.801Z,101267
2017-08-24T00:42:17.990Z,101266
2017-08-24T00:44:46.186Z,101278
2017-08-24T00:47:14.399Z,101273
2017-08-24T00:49:42.652Z,101275
2017-08-24T00:52:10.818Z,101256
2017-08-24T00:54:39.021Z,101258
2017-08-24T00:57:07.243Z,101253
2017-08-24T00:59:35.427Z,101248
2017-08-24T01:02:03.592Z,101249
2017-08-24T01:04:31.778Z,101245
2017-08-24T01:06:59.973Z,101234
2017-08-24T01:09:28.158Z,101229
2017-08-24T01:11:56.353Z,101223
2017-08-24T01:14:24.531Z,101221
2017-08-24T01:16:52.709Z,101215
2017-08-24T01:19:20.921Z,101217
2017-08-24T01:21:49.088Z,101216
2017-08-24T01:24:17.306Z,101222
2017-08-24T01:26:45.486Z,101221
2017-08-24T01:29:13.647Z,101222
2017-08-24T01:31:41.794Z,101222
2017-08-24T01:34:10.010Z,101221
2017-08-24T01:36:38.234Z,101217
2017-08-24T01:39:06.410Z,101220
2017-08-24T01:41:34.607Z,101222
2017-08-24T01:44:02.784Z,101223
2017-08-24T01:46:30.969Z,101220
2017-08-24T01:48:59.230Z,101206
2017-08-24T01:51:27.403Z,101216
2017-08-24T01:53:55.590Z,101214
2017-08-24T01:56:23.764Z,101214
2017-08-24T01:58:51.907Z,101212
2017-08-24T02:01:20.104Z,101204
2017-08-24T02:03:48.313Z,101192
2017-08-24T02:06:16.490Z,101187
2017-08-24T02:08:44.635Z,101188
2017-08-24T02:11:12.832Z,101182
2017-08-24T02:13:41.002Z,101193
2017-08-24T02:16:09.177Z,101174
2017-08-24T02:18:37.362Z,101172
2017-08-24T02:21:06.341Z,101167
2017-08-24T02:23:34.569Z,101153
2017-08-24T02:26:02.764Z,101157
2017-08-24T02:28:30.954Z,101156
2017-08-24T02:30:59.139Z,101150
2017-08-24T02:33:27.326Z,101143
2017-08-24T02:35:55.484Z,101143
2017-08-24T02:38:23.673Z,101137
2017-08-24T02:40:51.934Z,101127
2017-08-24T02:43:20.128Z,101118
2017-08-24T02:45:48.288Z,101103
2017-08-24T02:48:16.509Z,101100
2017-08-24T02:50:44.725Z,101096
2017-08-24T02:53:12.926Z,101100
2017-08-24T02:55:41.120Z,101100
2017-08-24T02:58:09.350Z,101093
2017-08-24T03:00:37.525Z,101086
2017-08-24T03:03:05.781Z,101085
2017-08-24T03:05:33.942Z,101089
2017-08-24T03:08:02.115Z,101083
2017-08-24T03:10:31.097Z,101078
2017-08-24T03:13:00.083Z,101069
2017-08-24T03:15:28.273Z,101073
2017-08-24T03:17:56.505Z,101066
2017-08-24T03:20:24.715Z,101068
2017-08-24T03:22:52.915Z,101069
2017-08-24T03:25:21.162Z,101073
2017-08-24T03:27:49.327Z,101071
2017-08-24T03:30:18.420Z,101049
2017-08-24T03:32:46.639Z,101055
2017-08-24T03:35:14.830Z,101052
2017-08-24T03:37:43.783Z,101053
2017-08-24T03:40:12.039Z,101063
2017-08-24T03:42:40.218Z,101064
2017-08-24T03:45:08.440Z,101057
2017-08-24T03:47:36.665Z,101048
2017-08-24T03:50:04.845Z,101049
2017-08-24T03:52:32.989Z,101061
2017-08-24T03:55:01.197Z,101055
2017-08-24T03:57:29.380Z,101054
2017-08-24T03:59:58.352Z,101048
2017-08-24T04:02:26.570Z,101043
2017-08-24T04:04:54.748Z,101041
2017-08-24T04:07:22.924Z,101033
2017-08-24T04:09:51.151Z,101032
2017-08-24T04:12:19.327Z,101029
2017-08-24T04:14:47.501Z,101034
2017-08-24T04:17:15.763Z,101030
2017-08-24T04:19:43.947Z,101028
2017-08-24T04:22:12.157Z,101031
2017-08-24T04:24:41.119Z,101031
2017-08-24T04:27:09.297Z,101038
2017-08-24T04:29:37.500Z,101028
2017-08-24T04:32:05.714Z,101035
2017-08-24T04:34:33.931Z,101027
2017-08-24T04:37:02.108Z,101039
2017-08-24T04:39:30.382Z,101043
2017-08-24T04:41:58.673Z,101039
2017-08-24T04:44:26.981Z,101034
2017-08-24T04:46:55.291Z,101046
2017-08-24T04:49:23.503Z,101044
2017-08-24T04:51:51.699Z,101043
2017-08-24T04:54:19.900Z,101044
2017-08-24T04:56:48.077Z,101048
2017-08-24T04:59:16.278Z,101056
2017-08-24T05:01:44.527Z,101066
2017-08-24T05:04:13.417Z,101053
2017-08-24T05:06:41.593Z,101053
2017-08-24T05:09:09.775Z,101053
2017-08-24T05:11:37.966Z,101052
2017-08-24T05:14:06.160Z,101058
2017-08-24T05:16:34.375Z,101067
2017-08-24T05:19:02.546Z,101069
2017-08-24T05:21:30.773Z,101058
2017-08-24T05:23:58.956Z,101069
2017-08-24T05:26:27.108Z,101056
2017-08-24T05:28:55.331Z,101061
2017-08-24T05:31:24.292Z,101052
2017-08-24T05:33:52.542Z,101046
2017-08-24T05:36:20.695Z,101053
2017-08-24T05:38:49.673Z,101040
2017-08-24T05:41:17.861Z,101046
2017-08-24T05:43:46.094Z,101050
2017-08-24T05:46:14.347Z,101042
2017-08-24T05:48:42.495Z,101032
2017-08-24T05:51:10.704Z,101038
2017-08-24T05:53:38.929Z,101023
2017-08-24T05:56:07.187Z,101016
2017-08-24T05:58:35.362Z,101021
2017-08-24T06:01:03.551Z,101018
2017-08-24T06:03:32.497Z,101027
2017-08-24T06:06:00.655Z,101038
2017-08-24T06:08:28.869Z,101056
2017-08-24T06:10:57.013Z,101069
2017-08-24T06:13:25.164Z,101088
2017-08-24T06:15:53.334Z,101088
2017-08-24T06:18:21.480Z,101090
2017-08-24T06:20:49.622Z,101089
2017-08-24T06:23:17.789Z,101080
2017-08-24T06:25:46.030Z,101064
2017-08-24T06:28:14.195Z,101074
2017-08-24T06:30:42.385Z,101077
2017-08-24T06:33:10.559Z,101066
2017-08-24T06:35:38.732Z,101064
2017-08-24T06:38:06.933Z,101079
2017-08-24T06:40:35.089Z,101075
2017-08-24T06:43:03.264Z,101078
2017-08-24T06:45:31.439Z,101066
2017-08-24T06:47:59.602Z,101056
2017-08-24T06:50:27.755Z,101054
2017-08-24T06:52:55.990Z,101060
2017-08-24T06:55:24.156Z,101056
2017-08-24T06:57:52.318Z,101043
2017-08-24T07:00:20.522Z,101043
2017-08-24T07:02:48.683Z,101048
2017-08-24T07:05:16.835Z,101047
2017-08-24T07:07:45.030Z,101049
2017-08-24T07:10:13.178Z,101061
2017-08-24T07:12:41.355Z,101069
2017-08-24T07:15:09.553Z,101055
2017-08-24T07:17:37.702Z,101065
2017-08-24T07:20:05.869Z,101065
2017-08-24T07:22:34.070Z,101067
2017-08-24T07:25:02.241Z,101062
2017-08-24T07:27:30.410Z,101066
2017-08-24T07:29:58.582Z,101066
2017-08-24T07:32:26.729Z,101073
2017-08-24T07:34:54.882Z,101075
2017-08-24T07:37:23.062Z,101079
2017-08-24T07:39:51.992Z,101079
2017-08-24T07:42:20.138Z,101077
2017-08-24T07:44:48.323Z,101076
2017-08-24T07:47:16.473Z,101076
2017-08-24T07:49:44.645Z,101075
2017-08-24T07:52:12.821Z,101081
2017-08-24T07:54:40.987Z,101082
2017-08-24T07:57:09.174Z,101094
2017-08-24T07:59:37.378Z,101102
2017-08-24T08:02:05.538Z,101101
2017-08-24T08:04:34.458Z,101091
2017-08-24T08:07:02.659Z,101101
2017-08-24T08:09:30.833Z,101082
2017-08-24T08:11:59.001Z,101085
2017-08-24T08:14:27.210Z,101100
2017-08-24T08:16:55.384Z,101091
2017-08-24T08:19:23.556Z,101099
2017-08-24T08:21:51.748Z,101108
2017-08-24T08:24:19.962Z,101104
2017-08-24T08:26:48.110Z,101112
2017-08-24T08:29:16.322Z,101109
2017-08-24T08:31:44.485Z,101113
2017-08-24T08:34:12.666Z,101115
2017-08-24T08:36:40.865Z,101122
2017-08-24T08:39:09.029Z,101124
2017-08-24T08:41:37.175Z,101133
2017-08-24T08:44:05.380Z,101138
2017-08-24T08:46:33.549Z,101134
2017-08-24T08:49:01.713Z,101137
2017-08-24T08:51:29.910Z,101140
2017-08-24T08:53:58.085Z,101140
2017-08-24T08:56:26.253Z,101145
2017-08-24T08:58:54.438Z,101139
2017-08-24T09:01:22.593Z,101140
2017-08-24T09:03:50.738Z,101137
2017-08-24T09:06:18.935Z,101141
2017-08-24T09:08:47.087Z,101140
2017-08-24T09:11:15.239Z,101144
2017-08-24T09:13:44.188Z,101147
2017-08-24T09:16:12.346Z,101150
2017-08-24T09:18:40.524Z,101151
2017-08-24T09:21:08.698Z,101159
2017-08-24T09:23:36.867Z,101159
2017-08-24T09:26:05.048Z,101158
2017-08-24T09:28:33.253Z,101168
2017-08-24T09:31:01.407Z,101171
2017-08-24T09:33:29.588Z,101164
2017-08-24T09:35:57.848Z,101166
2017-08-24T09:38:26.031Z,101165
2017-08-24T09:40:54.189Z,101171
2017-08-24T09:43:22.386Z,101166
2017-08-24T09:45:50.538Z,101164
2017-08-24T09:48:18.716Z,101162
2017-08-24T09:50:46.895Z,101162
2017-08-24T09:53:15.065Z,101152
2017-08-24T09:55:43.221Z,101157
2017-08-24T09:58:11.398Z,101152
2017-08-24T10:00:39.561Z,101155
2017-08-24T10:03:07.733Z,101147
2017-08-24T10:05:35.915Z,101151
2017-08-24T10:08:04.084Z,101147
2017-08-24T10:10:32.255Z,101156
2017-08-24T10:13:00.455Z,101146
2017-08-24T10:15:28.615Z,101139
2017-08-24T10:17:56.789Z,101138
2017-08-24T10:20:24.986Z,101141
2017-08-24T10:22:53.165Z,101130
2017-08-24T10:25:21.351Z,101129
2017-08-24T10:27:49.555Z,101128
2017-08-24T10:30:17.792Z,101130
2017-08-24T10:32:46.665Z,101128
2017-08-24T10:35:15.623Z,101130
2017-08-24T10:37:43.790Z,101138
2017-08-24T10:40:11.965Z,101131
2017-08-24T10:42:40.152Z,101139
2017-08-24T10:45:08.333Z,101151
2017-08-24T10:47:36.490Z,101144
2017-08-24T10:50:06.036Z,101151
2017-08-24T10:52:34.190Z,101154
2017-08-24T10:55:04.071Z,101162
2017-08-24T10:57:32.265Z,101166
2017-08-24T11:00:00.448Z,101175
2017-08-24T11:02:28.625Z,101174
2017-08-24T11:04:56.813Z,101184
2017-08-24T11:07:25.031Z,101177
2017-08-24T11:09:53.220Z,101180
2017-08-24T11:12:21.432Z,101179
2017-08-24T11:14:49.608Z,101179
2017-08-24T11:17:17.795Z,101176
2017-08-24T11:19:45.979Z,101173
2017-08-24T11:22:14.135Z,101173
2017-08-24T11:24:42.304Z,101169
2017-08-24T11:27:10.511Z,101157
2017-08-24T11:29:38.677Z,101176
2017-08-24T11:32:06.855Z,101178
2017-08-24T11:34:35.037Z,101189
2017-08-24T11:37:03.207Z,101195
2017-08-24T11:39:31.382Z,101193
2017-08-24T11:41:59.578Z,101188
2017-08-24T11:44:27.759Z,101184
2017-08-24T11:46:55.920Z,101184
2017-08-24T11:49:24.105Z,101186
2017-08-24T11:51:52.258Z,101198
2017-08-24T11:54:20.416Z,101201
2017-08-24T11:56:48.609Z,101203
2017-08-24T11:59:16.759Z,101193
2017-08-24T12:01:44.933Z,101200
2017-08-24T12:04:13.175Z,101190
2017-08-24T12:06:41.342Z,101190
2017-08-24T12:09:09.665Z,101191
2017-08-24T12:11:37.861Z,101191
2017-08-24T12:14:06.017Z,101195
2017-08-24T12:16:34.423Z,101201
2017-08-24T12:19:02.610Z,101207
2017-08-24T12:21:30.780Z,101213
2017-08-24T12:23:58.925Z,101205
2017-08-24T12:26:27.117Z,101214
2017-08-24T12:28:55.281Z,101209
2017-08-24T12:31:23.429Z,101217
2017-08-24T12:33:51.970Z,101218
2017-08-24T12:36:20.145Z,101213
2017-08-24T12:38:48.318Z,101221
2017-08-24T12:41:16.501Z,101226
2017-08-24T12:43:44.670Z,101228
2017-08-24T12:46:12.825Z,101229
2017-08-24T12:48:41.017Z,101243
2017-08-24T12:51:09.189Z,101234
2017-08-24T12:53:37.386Z,101234
2017-08-24T12:56:05.578Z,101237
2017-08-24T12:58:33.750Z,101233
2017-08-24T13:01:01.898Z,101241
2017-08-24T13:03:30.098Z,101241
2017-08-24T13:05:58.258Z,101244
2017-08-24T13:08:26.406Z,101241
2017-08-24T13:10:54.598Z,101245
2017-08-24T13:13:22.770Z,101249
2017-08-24T13:15:50.925Z,101244
2017-08-24T13:18:19.133Z,101257
2017-08-24T13:20:48.051Z,101252
2017-08-24T13:23:16.224Z,101262
2017-08-24T13:25:44.399Z,101255
2017-08-24T13:28:12.553Z,101262
2017-08-24T13:30:41.479Z,101261
2017-08-24T13:33:09.737Z,101264
2017-08-24T13:35:37.899Z,101275
2017-08-24T13:38:06.053Z,101267
2017-08-24T13:40:34.253Z,101273
2017-08-24T13:43:02.410Z,101269
2017-08-24T13:45:30.579Z,101257
2017-08-24T13:47:58.780Z,101270
2017-08-24T13:50:26.941Z,101268
2017-08-24T13:52:55.117Z,101262
2017-08-24T13:55:23.295Z,101262
2017-08-24T13:57:52.219Z,101267
2017-08-24T14:00:20.373Z,101255
2017-08-24T14:02:48.585Z,101253
2017-08-24T14:05:16.731Z,101268
2017-08-24T14:07:44.889Z,101255
2017-08-24T14:10:13.073Z,101257
2017-08-24T14:12:41.234Z,101257
2017-08-24T14:15:10.175Z,101261
2017-08-24T14:17:38.377Z,101265
2017-08-24T14:20:06.551Z,101264
2017-08-24T14:22:34.706Z,101262
2017-08-24T14:25:02.912Z,101257
2017-08-24T14:27:31.065Z,101263
2017-08-24T14:29:59.215Z,101262
2017-08-24T14:32:27.415Z,101266
2017-08-24T14:34:55.567Z,101264
2017-08-24T14:37:23.745Z,101265
2017-08-24T14:39:51.926Z,101273
2017-08-24T14:42:20.205Z,101269
2017-08-24T14:44:48.373Z,101281
2017-08-24T14:47:16.553Z,101269
2017-08-24T14:49:44.721Z,101269
2017-08-24T14:52:12.871Z,101274
2017-08-24T14:54:41.064Z,101280
2017-08-24T14:57:09.222Z,101285
2017-08-24T14:59:37.370Z,101286
2017-08-24T15:02:05.554Z,101278
2017-08-24T15:04:33.710Z,101280
2017-08-24T15:07:01.879Z,101282
2017-08-24T15:09:30.073Z,101281
2017-08-24T15:11:58.998Z,101284
2017-08-24T15:14:27.146Z,101277
2017-08-24T15:16:55.351Z,101293
2017-08-24T15:19:23.508Z,101285
2017-08-24T15:21:51.658Z,101282
2017-08-24T15:24:19.858Z,101279
2017-08-24T15:26:48.029Z,101282
2017-08-24T15:29:16.194Z,101274
2017-08-24T15:31:44.394Z,101276
2017-08-24T15:34:12.550Z,101273
2017-08-24T15:36:40.730Z,101275
2017-08-24T15:39:08.925Z,101281
2017-08-24T15:41:37.081Z,101293
2017-08-24T15:44:05.251Z,101289
2017-08-24T15:46:33.433Z,101296
2017-08-24T15:49:01.583Z,101299
2017-08-24T15:51:29.754Z,101296
2017-08-24T15:53:57.939Z,101301
2017-08-24T15:56:26.097Z,101302
2017-08-24T15:58:54.256Z,101306
2017-08-24T16:01:22.430Z,101308
2017-08-24T16:03:50.579Z,101315
2017-08-24T16:06:18.738Z,101315
2017-08-24T16:08:46.912Z,101306
2017-08-24T16:11:15.062Z,101308
2017-08-24T16:13:43.224Z,101314
2017-08-24T16:16:11.426Z,101303
2017-08-24T16:18:39.578Z,101305
2017-08-24T16:21:07.761Z,101315
2017-08-24T16:23:36.701Z,101312
2017-08-24T16:26:04.865Z,101317
2017-08-24T16:28:33.041Z,101318
2017-08-24T16:31:01.253Z,101321
2017-08-24T16:33:29.399Z,101315
2017-08-24T16:35:57.562Z,101320
2017-08-24T16:38:25.738Z,101318
2017-08-24T16:40:53.909Z,101325
2017-08-24T16:43:22.082Z,101316
2017-08-24T16:45:50.273Z,101322
2017-08-24T16:48:18.446Z,101331
2017-08-24T16:50:46.589Z,101324
2017-08-24T16:53:14.778Z,101319
2017-08-24T16:55:42.940Z,101320
2017-08-24T16:58:11.106Z,101323
2017-08-24T17:00:39.294Z,101328
2017-08-24T17:03:07.479Z,101325
2017-08-24T17:05:35.647Z,101328
2017-08-24T17:08:03.818Z,101332
2017-08-24T17:10:31.967Z,101333
2017-08-24T17:13:00.904Z,101323
2017-08-24T17:15:29.100Z,101327
2017-08-24T17:17:57.253Z,101320
2017-08-24T17:20:25.429Z,101330
2017-08-24T17:22:53.626Z,101342
2017-08-24T17:25:21.794Z,101338
2017-08-24T17:27:49.965Z,101340
2017-08-24T17:30:18.162Z,101342
2017-08-24T17:32:46.326Z,101345
2017-08-24T17:35:14.494Z,101341
2017-08-24T17:37:42.683Z,101343
2017-08-24T17:40:10.834Z,101349
2017-08-24T17:42:39.002Z,101347
2017-08-24T17:45:07.175Z,101344
2017-08-24T17:47:35.402Z,101346
2017-08-24T17:50:03.580Z,101346
2017-08-24T17:52:31.751Z,101345
2017-08-24T17:54:59.918Z,101345
2017-08-24T17:57:28.099Z,101345
2017-08-24T17:59:56.293Z,101345
2017-08-24T18:02:24.466Z,101355
2017-08-24T18:04:52.633Z,101350
2017-08-24T18:07:21.166Z,101356
2017-08-24T18:09:49.317Z,101351
2017-08-24T18:12:17.462Z,101358
2017-08-24T18:14:45.661Z,101364
2017-08-24T18:17:13.825Z,101358
2017-08-24T18:19:41.985Z,101357
2017-08-24T18:22:10.173Z,101348
2017-08-24T18:24:38.340Z,101363
2017-08-24T18:27:06.487Z,101365
2017-08-24T18:29:34.666Z,101359
2017-08-24T18:32:03.583Z,101359
2017-08-24T18:34:31.753Z,101363
2017-08-24T18:36:59.949Z,101358
2017-08-24T18:39:28.117Z,101365
2017-08-24T18:41:56.291Z,101367
2017-08-24T18:44:24.471Z,101372
2017-08-24T18:46:52.626Z,101369
2017-08-24T18:49:20.776Z,101364
2017-08-24T18:51:48.969Z,101373
2017-08-24T18:54:17.118Z,101380
2017-08-24T18:56:45.261Z,101372
2017-08-24T18:59:13.436Z,101368
2017-08-24T19:01:41.605Z,101371
2017-08-24T19:04:09.780Z,101377
2017-08-24T19:06:37.968Z,101369
2017-08-24T19:09:06.117Z,101378
2017-08-24T19:11:34.267Z,101371
2017-08-24T19:14:02.443Z,101380
2017-08-24T19:16:30.591Z,101371
2017-08-24T19:18:58.752Z,101374
2017-08-24T19:21:26.937Z,101377
2017-08-24T19:23:55.137Z,101379
2017-08-24T19:26:23.311Z,101384
2017-08-24T19:28:51.736Z,101381
2017-08-24T19:31:19.902Z,101374
2017-08-24T19:33:48.054Z,101383
2017-08-24T19:36:16.249Z,101374
2017-08-24T19:38:44.410Z,101373
2017-08-24T19:41:12.929Z,101378
2017-08-24T19:43:41.129Z,101375
2017-08-24T19:46:09.296Z,101387
2017-08-24T19:48:37.465Z,101387
2017-08-24T19:51:05.663Z,101385
2017-08-24T19:53:33.826Z,101390
2017-08-24T19:56:01.997Z,101386
2017-08-24T19:58:30.193Z,101388
2017-08-24T20:00:58.346Z,101398
2017-08-24T20:03:26.492Z,101392
2017-08-24T20:05:54.691Z,101396
2017-08-24T20:08:22.843Z,101409
2017-08-24T20:10:50.988Z,101409
2017-08-24T20:13:19.169Z,101410
2017-08-24T20:15:47.320Z,101406
2017-08-24T20:18:15.483Z,101413
2017-08-24T20:20:43.655Z,101413
2017-08-24T20:23:12.599Z,101418
2017-08-24T20:25:40.747Z,101411
2017-08-24T20:28:08.922Z,101415
2017-08-24T20:30:37.071Z,101419
2017-08-24T20:33:05.988Z,101418
2017-08-24T20:35:34.165Z,101423
2017-08-24T20:38:02.328Z,101423
2017-08-24T20:40:30.481Z,101426
2017-08-24T20:42:58.672Z,101427
2017-08-24T20:45:26.833Z,101421
2017-08-24T20:47:54.997Z,101425
2017-08-24T20:50:23.196Z,101429
2017-08-24T20:52:51.347Z,101434
2017-08-24T20:55:19.501Z,101438
2017-08-24T20:57:47.693Z,101440
2017-08-24T21:00:15.865Z,101451
2017-08-24T21:02:44.017Z,101452
2017-08-24T21:05:12.210Z,101440
2017-08-24T21:07:40.355Z,101444
2017-08-24T21:10:08.522Z,101438
2017-08-24T21:12:36.727Z,101447
2017-08-24T21:15:04.893Z,101458
2017-08-24T21:17:33.062Z,101450
2017-08-24T21:20:01.247Z,101455
2017-08-24T21:22:29.430Z,101454
2017-08-24T21:24:57.581Z,101462
2017-08-24T21:27:25.785Z,101461
2017-08-24T21:29:53.956Z,101463
2017-08-24T21:32:22.121Z,101463
2017-08-24T21:34:50.312Z,101465
2017-08-24T21:37:18.465Z,101457
2017-08-24T21:39:46.619Z,101449
2017-08-24T21:42:14.804Z,101460
2017-08-24T21:44:42.965Z,101460
2017-08-24T21:47:11.126Z,101462
2017-08-24T21:49:39.321Z,101456
2017-08-24T21:52:07.466Z,101462
2017-08-24T21:54:35.633Z,101465
2017-08-24T21:57:03.830Z,101463
2017-08-24T21:59:31.994Z,101464
2017-08-24T22:02:00.157Z,101458
2017-08-24T22:04:28.351Z,101460
2017-08-24T22:06:56.518Z,101469
2017-08-24T22:09:24.667Z,101474
2017-08-24T22:11:53.620Z,101474
2017-08-24T22:14:21.763Z,101460
2017-08-24T22:16:50.273Z,101465
2017-08-24T22:19:18.454Z,101463
2017-08-24T22:21:46.603Z,101463
2017-08-24T22:24:14.978Z,101464
2017-08-24T22:26:43.180Z,101463
2017-08-24T22:29:11.342Z,101457
2017-08-24T22:31:39.491Z,101461
2017-08-24T22:34:07.686Z,101457
2017-08-24T22:36:35.852Z,101465
2017-08-24T22:39:04.013Z,101467
2017-08-24T22:41:32.199Z,101463
2017-08-24T22:44:00.380Z,101461
2017-08-24T22:46:28.534Z,101467
2017-08-24T22:48:56.749Z,101463
2017-08-24T22:51:24.902Z,101462
2017-08-24T22:53:58.599Z,101458
2017-08-24T22:59:33.894Z,101453
2017-08-24T23:02:07.531Z,101448
2017-08-24T23:04:35.702Z,101445
2017-08-24T23:07:03.929Z,101447
2017-08-24T23:09:32.099Z,101443
2017-08-24T23:12:00.282Z,101446
2017-08-24T23:14:28.452Z,101453
2017-08-24T23:16:56.599Z,101446
2017-08-24T23:19:24.800Z,101452
2017-08-24T23:21:52.971Z,101447
2017-08-24T23:24:21.120Z,101448
2017-08-24T23:26:49.299Z,101442
2017-08-24T23:29:17.467Z,101448
2017-08-24T23:31:45.890Z,101444
2017-08-24T23:34:14.073Z,101447
2017-08-24T23:36:42.245Z,101449
2017-08-24T23:39:10.396Z,101451
2017-08-24T23:41:38.596Z,101446
2017-08-24T23:44:06.761Z,101448
2017-08-24T23:46:34.908Z,101443
2017-08-24T23:49:03.112Z,101442
2017-08-24T23:51:31.285Z,101442
2017-08-24T23:53:59.446Z,101443
2017-08-24T23:56:27.617Z,101442
2017-08-24T23:58:55.772Z,101442
